Etusivu
METAR-TAF:

METAR-TAF

Lentoasemat :

Community_Airport

Owosso, Michigan, Yhdysvallat

Leveyspiiri: 42-59-34N, Pituuspiiri: 084-08-20W, korkeus merenpinnasta: 224 m

Tämänhetkinen sää

Tämä raportti tehtiin 16 minuuttia sitten, kello 04.55 UTC
Tuuli 10 kn kaakosta
Lämpötila 16°C
Kosteus 77%
Ilmanpaine 1015 hPa
Näkyvyys: 16.1 km
Hajanaisia pilviä 7000 ft:n korkeudessa
Hajonneita pilviä 7500 ft:n korkeudessa
Pilvistä 9500 ft:n korkeudessa

METAR: KRNP 250455Z AUTO 13010KT 10SM SCT070 BKN075 OVC095 16/12 A2997 RMK AO2 T01570120 401660080

Aika: 01:11 (05:11 UTC)


TAF: puuttuu

Säähavainnot ja -ennusteet yli 4000 lentoasemalta (METAR- ja TAF-raportit).

Käytössä olevat sääasemat on merkitty karttaan keltaisilla ja punaisilla pisteillä.

Aseta hiiri pisteen päälle nähdäksesi sääaseman nimen.

Klikkaa sitten nähdäksesi säähavainnot ja -ennusteet.

Kartan vaihtaminen: klikkaa mustalla rastilla varustettuja vihreitä pisteitä, niin voit zoomata sisään; viivalla varustettua vihreää pistettä, niin voit zoomata ulos tai vihreitä nuolia, niin pääset viereisille kartoille.


METAR-TAF: